createdAt,value
2022-09-23T00:01:41.669Z,3.10
2022-09-23T00:04:09.368Z,3.25
2022-09-23T00:06:39.717Z,3.30
2022-09-23T00:09:07.136Z,3.10
2022-09-23T00:11:34.437Z,3.45
2022-09-23T00:14:01.980Z,3.20
2022-09-23T00:16:34.105Z,3.33
2022-09-23T00:19:04.639Z,3.20
2022-09-23T00:21:34.870Z,3.72
2022-09-23T00:24:04.910Z,3.13
2022-09-23T00:26:32.216Z,3.63
2022-09-23T00:29:02.052Z,3.78
2022-09-23T00:31:29.499Z,3.78
2022-09-23T00:33:59.324Z,3.33
2022-09-23T00:36:32.202Z,3.28
2022-09-23T00:39:04.558Z,3.30
2022-09-23T00:41:37.165Z,3.83
2022-09-23T00:44:42.518Z,3.40
2022-09-23T00:47:19.372Z,3.33
2022-09-23T00:49:56.048Z,3.47
2022-09-23T00:52:24.002Z,4.03
2022-09-23T00:54:55.269Z,3.50
2022-09-23T00:57:27.241Z,3.55
2022-09-23T00:59:55.105Z,3.65
2022-09-23T01:02:22.626Z,3.17
2022-09-23T01:04:51.057Z,3.83
2022-09-23T01:07:21.983Z,3.30
2022-09-23T01:09:51.952Z,3.35
2022-09-23T01:12:34.308Z,2.88
2022-09-23T01:15:16.185Z,3.78
2022-09-23T01:18:02.165Z,3.15
2022-09-23T01:20:42.165Z,3.58
2022-09-23T01:23:46.441Z,3.30
2022-09-23T01:29:27.147Z,4.00
2022-09-23T01:32:08.024Z,3.38
2022-09-23T01:35:22.588Z,3.20
2022-09-23T01:38:05.227Z,3.00
2022-09-23T01:40:43.597Z,3.70
2022-09-23T01:43:49.416Z,3.38
2022-09-23T01:46:28.027Z,3.30
2022-09-23T01:49:05.129Z,3.85
2022-09-23T01:51:46.217Z,3.42
2022-09-23T01:54:31.451Z,3.60
2022-09-23T01:57:05.371Z,3.60
2022-09-23T01:59:43.410Z,3.72
2022-09-23T02:02:22.050Z,3.40
2022-09-23T02:05:02.618Z,3.38
2022-09-23T02:07:48.250Z,3.13
2022-09-23T02:10:19.624Z,3.28
2022-09-23T02:12:50.052Z,3.17
2022-09-23T02:15:23.549Z,3.35
2022-09-23T02:17:55.792Z,3.67
2022-09-23T02:20:29.939Z,3.42
2022-09-23T02:23:07.631Z,3.60
2022-09-23T02:25:55.335Z,3.40
2022-09-23T02:28:37.764Z,3.70
2022-09-23T02:32:01.603Z,3.40
2022-09-23T02:34:42.072Z,3.17
2022-09-23T02:40:10.710Z,3.28
2022-09-23T02:43:08.338Z,3.45
2022-09-23T02:45:37.946Z,3.55
2022-09-23T02:48:26.415Z,3.35
2022-09-23T02:50:54.570Z,3.60
2022-09-23T02:53:26.717Z,3.60
2022-09-23T02:55:57.066Z,3.50
2022-09-23T02:58:24.630Z,3.53
2022-09-23T03:00:55.223Z,3.22
2022-09-23T03:03:46.709Z,3.38
2022-09-23T03:06:32.158Z,3.50
2022-09-23T03:09:11.583Z,3.38
2022-09-23T03:11:46.715Z,3.20
2022-09-23T03:14:41.172Z,3.30
2022-09-23T03:17:15.974Z,3.13
2022-09-23T03:19:48.404Z,3.22
2022-09-23T03:22:24.661Z,3.53
2022-09-23T03:24:54.423Z,3.30
2022-09-23T03:27:29.913Z,2.67
2022-09-23T03:29:57.614Z,2.83
2022-09-23T03:32:28.072Z,3.45
2022-09-23T03:34:58.736Z,3.00
2022-09-23T03:37:32.483Z,3.33
2022-09-23T03:40:11.236Z,3.03
2022-09-23T03:42:40.020Z,3.75
2022-09-23T03:45:13.391Z,3.17
2022-09-23T03:47:42.334Z,3.15
2022-09-23T03:50:10.186Z,3.58
2022-09-23T03:52:40.070Z,2.65
2022-09-23T03:55:16.502Z,3.00
2022-09-23T03:57:48.542Z,3.28
2022-09-23T04:00:16.679Z,3.20
2022-09-23T04:02:44.556Z,3.08
2022-09-23T04:05:13.634Z,3.35
2022-09-23T04:07:41.375Z,3.30
2022-09-23T04:10:10.968Z,2.95
2022-09-23T04:12:38.863Z,3.10
2022-09-23T04:15:06.870Z,3.08
2022-09-23T04:17:35.549Z,2.65
2022-09-23T04:20:03.650Z,2.65
2022-09-23T04:22:32.752Z,2.85
2022-09-23T04:25:00.453Z,3.17
2022-09-23T04:27:27.766Z,2.60
2022-09-23T04:29:55.529Z,3.13
2022-09-23T04:32:25.318Z,3.20
2022-09-23T04:34:52.634Z,3.20
2022-09-23T04:37:20.079Z,2.85
2022-09-23T04:39:47.703Z,2.72
2022-09-23T04:42:15.339Z,2.97
2022-09-23T04:44:43.882Z,3.28
2022-09-23T04:47:11.356Z,3.00
2022-09-23T04:49:43.263Z,2.92
2022-09-23T04:52:12.017Z,3.00
2022-09-23T04:54:41.583Z,3.30
2022-09-23T04:57:11.141Z,3.53
2022-09-23T04:59:41.721Z,3.45
2022-09-23T05:02:11.183Z,3.40
2022-09-23T05:04:39.761Z,3.58
2022-09-23T05:07:07.586Z,3.35
2022-09-23T05:09:35.238Z,3.10
2022-09-23T05:12:03.440Z,3.63
2022-09-23T05:14:31.159Z,3.30
2022-09-23T05:16:58.640Z,3.60
2022-09-23T05:19:26.555Z,3.63
2022-09-23T05:21:55.078Z,3.42
2022-09-23T05:24:26.215Z,3.00
2022-09-23T05:26:55.871Z,3.20
2022-09-23T05:29:23.167Z,2.83
2022-09-23T05:31:50.735Z,3.08
2022-09-23T05:34:18.795Z,3.25
2022-09-23T05:36:46.287Z,2.92
2022-09-23T05:39:15.912Z,3.17
2022-09-23T05:41:43.620Z,2.83
2022-09-23T05:44:14.700Z,2.67
2022-09-23T05:46:42.191Z,3.22
2022-09-23T05:49:10.039Z,3.17
2022-09-23T05:51:37.870Z,3.15
2022-09-23T05:54:06.465Z,3.15
2022-09-23T05:56:34.825Z,3.20
2022-09-23T05:59:02.749Z,3.20
2022-09-23T06:01:38.123Z,3.33
2022-09-23T06:04:12.681Z,2.60
2022-09-23T06:06:42.234Z,2.72
2022-09-23T06:09:14.702Z,3.10
2022-09-23T06:11:42.570Z,3.43
2022-09-23T06:14:13.254Z,3.33
2022-09-23T06:16:43.074Z,3.28
2022-09-23T06:19:10.871Z,3.10
2022-09-23T06:21:40.524Z,3.00
2022-09-23T06:24:12.708Z,2.83
2022-09-23T06:26:43.097Z,2.80
2022-09-23T06:29:11.964Z,3.03
2022-09-23T06:31:41.251Z,2.72
2022-09-23T06:34:14.411Z,2.70
2022-09-23T06:36:45.390Z,2.80
2022-09-23T06:39:15.501Z,2.70
2022-09-23T06:41:45.266Z,2.83
2022-09-23T06:44:14.545Z,2.65
2022-09-23T06:46:42.703Z,2.72
2022-09-23T06:49:13.463Z,2.58
2022-09-23T06:51:42.426Z,2.60
2022-09-23T06:54:11.503Z,3.05
2022-09-23T06:56:40.104Z,2.60
2022-09-23T06:59:10.879Z,2.80
2022-09-23T07:01:38.650Z,2.90
2022-09-23T07:04:07.640Z,4.07
2022-09-23T07:06:35.681Z,3.40
2022-09-23T07:09:03.935Z,3.10
2022-09-23T07:11:31.801Z,2.97
2022-09-23T07:14:01.343Z,2.95
2022-09-23T07:16:28.815Z,3.92
2022-09-23T07:18:56.361Z,4.43
2022-09-23T07:21:24.249Z,3.13
2022-09-23T07:23:55.246Z,2.88
2022-09-23T07:26:22.896Z,2.97
2022-09-23T07:29:04.740Z,2.95
2022-09-23T07:31:39.359Z,2.60
2022-09-23T07:34:11.485Z,3.20
2022-09-23T07:36:40.862Z,3.00
2022-09-23T07:39:11.327Z,2.47
2022-09-23T07:41:39.199Z,3.25
2022-09-23T07:44:06.514Z,3.17
2022-09-23T07:46:36.014Z,3.22
2022-09-23T07:49:05.141Z,3.70
2022-09-23T07:51:36.814Z,3.45
2022-09-23T07:54:10.128Z,3.67
2022-09-23T07:59:09.003Z,3.15
2022-09-23T08:01:39.800Z,3.65
2022-09-23T08:04:11.689Z,4.15
2022-09-23T08:06:50.243Z,4.28
2022-09-23T08:09:19.959Z,4.93
2022-09-23T08:11:50.922Z,4.80
2022-09-23T08:14:18.931Z,5.32
2022-09-23T08:16:47.757Z,5.28
2022-09-23T08:19:15.964Z,4.45
2022-09-23T08:21:43.929Z,4.80
2022-09-23T08:24:20.892Z,4.45
2022-09-23T08:26:51.494Z,3.75
2022-09-23T08:29:21.079Z,3.70
2022-09-23T08:31:49.839Z,4.07
2022-09-23T08:34:18.901Z,3.63
2022-09-23T08:36:46.825Z,3.65
2022-09-23T08:39:18.886Z,3.95
2022-09-23T08:41:58.803Z,4.00
2022-09-23T08:44:58.423Z,3.58
2022-09-23T08:47:43.736Z,3.30
2022-09-23T08:50:19.417Z,3.90
2022-09-23T08:53:08.531Z,3.55
2022-09-23T08:55:51.943Z,3.75
2022-09-23T08:58:55.216Z,3.47
2022-09-23T09:01:35.735Z,3.37
2022-09-23T09:04:40.539Z,3.45
2022-09-23T09:07:34.751Z,2.90
2022-09-23T09:10:18.645Z,3.42
2022-09-23T09:12:52.088Z,3.00
2022-09-23T09:15:26.620Z,2.92
2022-09-23T09:18:12.600Z,2.72
2022-09-23T09:21:00.551Z,2.95
2022-09-23T09:23:45.099Z,3.03
2022-09-23T09:26:21.317Z,3.03
2022-09-23T09:29:23.404Z,2.70
2022-09-23T09:31:51.812Z,3.10
2022-09-23T09:34:48.070Z,3.00
2022-09-23T09:37:34.117Z,3.00
2022-09-23T09:40:03.517Z,2.90
2022-09-23T09:42:39.927Z,3.03
2022-09-23T09:45:33.861Z,3.28
2022-09-23T09:50:53.602Z,2.75
2022-09-23T09:53:32.136Z,3.13
2022-09-23T09:56:06.144Z,2.72
2022-09-23T09:58:51.806Z,2.58
2022-09-23T10:01:34.259Z,2.60
2022-09-23T10:04:05.137Z,2.70
2022-09-23T10:06:35.796Z,2.72
2022-09-23T10:09:19.525Z,2.55
2022-09-23T10:12:11.406Z,2.55
2022-09-23T10:14:39.033Z,2.47
2022-09-23T10:17:14.936Z,2.70
2022-09-23T10:19:50.884Z,2.70
2022-09-23T10:22:30.042Z,3.58
2022-09-23T10:25:03.226Z,2.80
2022-09-23T10:27:36.199Z,2.88
2022-09-23T10:30:05.249Z,2.90
2022-09-23T10:32:36.443Z,2.50
2022-09-23T10:35:09.770Z,2.60
2022-09-23T10:37:57.420Z,3.13
2022-09-23T10:41:02.835Z,3.15
2022-09-23T10:44:05.492Z,2.63
2022-09-23T10:46:47.544Z,2.83
2022-09-23T10:49:33.766Z,2.75
2022-09-23T10:52:45.382Z,2.97
2022-09-23T10:56:02.408Z,2.58
2022-09-23T10:58:52.449Z,2.90
2022-09-23T11:01:49.265Z,2.95
2022-09-23T11:04:41.661Z,2.80
2022-09-23T11:07:23.850Z,3.08
2022-09-23T11:10:00.501Z,2.63
2022-09-23T11:13:06.399Z,2.88
2022-09-23T11:15:50.661Z,2.80
2022-09-23T11:18:49.869Z,2.85
2022-09-23T11:21:33.555Z,2.92
2022-09-23T11:24:01.353Z,2.40
2022-09-23T11:26:45.536Z,2.78
2022-09-23T11:29:44.017Z,2.50
2022-09-23T11:32:48.225Z,2.58
2022-09-23T11:35:26.007Z,2.65
2022-09-23T11:38:01.818Z,2.58
2022-09-23T11:40:43.877Z,2.83
2022-09-23T11:43:30.403Z,2.70
2022-09-23T11:46:14.268Z,3.00
2022-09-23T11:48:55.725Z,2.80
2022-09-23T11:51:36.618Z,2.70
2022-09-23T11:54:21.214Z,3.00
2022-09-23T11:56:54.676Z,3.03
2022-09-23T12:02:43.587Z,3.03
2022-09-23T12:05:22.726Z,2.85
2022-09-23T12:08:12.707Z,2.72
2022-09-23T12:10:59.545Z,2.85
2022-09-23T12:13:45.151Z,3.08
2022-09-23T12:16:22.057Z,2.75
2022-09-23T12:18:59.963Z,2.92
2022-09-23T12:21:51.278Z,2.38
2022-09-23T12:24:42.056Z,2.67
2022-09-23T12:27:24.016Z,2.50
2022-09-23T12:29:57.747Z,2.80
2022-09-23T12:32:26.455Z,2.47
2022-09-23T12:34:54.553Z,2.72
2022-09-23T12:37:34.401Z,2.63
2022-09-23T12:40:22.326Z,2.33
2022-09-23T12:42:50.733Z,2.70
2022-09-23T12:45:32.825Z,2.83
2022-09-23T12:48:24.674Z,2.50
2022-09-23T12:50:57.064Z,2.83
2022-09-23T12:53:33.697Z,2.60
2022-09-23T12:56:15.465Z,2.58
2022-09-23T12:58:43.932Z,2.70
2022-09-23T13:01:15.167Z,2.78
2022-09-23T13:04:17.195Z,2.40
2022-09-23T13:07:05.885Z,2.53
2022-09-23T13:09:41.113Z,2.80
2022-09-23T13:12:24.356Z,2.88
2022-09-23T13:14:54.788Z,2.80
2022-09-23T13:17:29.856Z,2.67
2022-09-23T13:20:26.243Z,3.10
2022-09-23T13:22:53.506Z,2.70
2022-09-23T13:25:32.569Z,2.92
2022-09-23T13:28:02.582Z,2.67
2022-09-23T13:30:30.446Z,2.83
2022-09-23T13:33:46.098Z,2.70
2022-09-23T13:36:16.002Z,2.25
2022-09-23T13:38:46.125Z,2.60
2022-09-23T13:41:25.188Z,2.22
2022-09-23T13:43:59.227Z,2.78
2022-09-23T13:46:30.218Z,2.40
2022-09-23T13:48:57.564Z,2.10
2022-09-23T13:51:30.225Z,2.63
2022-09-23T13:53:59.661Z,2.25
2022-09-23T13:56:30.179Z,2.28
2022-09-23T13:59:25.899Z,2.10
2022-09-23T14:02:04.911Z,2.30
2022-09-23T14:04:32.664Z,2.33
2022-09-23T14:07:02.207Z,2.30
2022-09-23T14:09:30.717Z,2.22
2022-09-23T14:12:00.881Z,2.50
2022-09-23T14:14:30.296Z,2.20
2022-09-23T14:16:58.701Z,2.38
2022-09-23T14:19:26.650Z,2.38
2022-09-23T14:22:00.636Z,2.33
2022-09-23T14:24:37.961Z,2.42
2022-09-23T14:27:08.544Z,2.10
2022-09-23T14:29:49.425Z,2.35
2022-09-23T14:32:30.044Z,2.10
2022-09-23T14:35:01.049Z,2.35
2022-09-23T14:37:57.841Z,2.03
2022-09-23T14:40:38.136Z,2.13
2022-09-23T14:43:24.198Z,2.30
2022-09-23T14:46:01.933Z,2.30
2022-09-23T14:48:39.598Z,1.90
2022-09-23T14:51:17.063Z,2.05
2022-09-23T14:53:47.680Z,2.00
2022-09-23T14:56:21.612Z,2.17
2022-09-23T14:58:59.440Z,2.03
2022-09-23T15:01:34.032Z,2.38
2022-09-23T15:04:21.905Z,2.67
2022-09-23T15:07:17.288Z,2.15
2022-09-23T15:09:45.938Z,2.00
2022-09-23T15:12:22.518Z,2.40
2022-09-23T15:14:54.378Z,2.20
2022-09-23T15:17:33.181Z,2.25
2022-09-23T15:20:20.608Z,2.00
2022-09-23T15:22:56.352Z,2.15
2022-09-23T15:25:36.345Z,2.08
2022-09-23T15:28:17.635Z,2.08
2022-09-23T15:30:47.712Z,2.13
2022-09-23T15:33:17.429Z,2.17
2022-09-23T15:35:50.578Z,2.33
2022-09-23T15:38:22.013Z,2.30
2022-09-23T15:40:50.313Z,1.98
2022-09-23T15:43:24.151Z,2.40
2022-09-23T15:45:58.638Z,2.33
2022-09-23T15:48:32.546Z,2.00
2022-09-23T15:51:04.936Z,1.80
2022-09-23T15:53:34.737Z,2.47
2022-09-23T15:56:04.282Z,2.10
2022-09-23T15:58:32.737Z,1.90
2022-09-23T16:01:02.153Z,1.85
2022-09-23T16:03:35.428Z,1.88
2022-09-23T16:06:06.721Z,2.00
2022-09-23T16:08:35.836Z,2.10
2022-09-23T16:11:08.629Z,2.10
2022-09-23T16:13:37.621Z,1.83
2022-09-23T16:16:08.606Z,2.08
2022-09-23T16:18:38.457Z,1.92
2022-09-23T16:21:09.039Z,1.90
2022-09-23T16:23:43.469Z,1.73
2022-09-23T16:26:27.288Z,1.90
2022-09-23T16:28:57.213Z,2.38
2022-09-23T16:31:26.899Z,2.10
2022-09-23T16:33:55.341Z,2.45
2022-09-23T16:36:33.548Z,2.10
2022-09-23T16:39:08.005Z,2.25
2022-09-23T16:41:36.800Z,2.28
2022-09-23T16:44:07.472Z,2.20
2022-09-23T16:46:35.929Z,2.25
2022-09-23T16:49:04.880Z,2.28
2022-09-23T16:51:38.466Z,2.40
2022-09-23T16:54:11.912Z,2.60
2022-09-23T16:59:09.249Z,2.42
2022-09-23T17:01:55.385Z,2.38
2022-09-23T17:04:24.119Z,2.92
2022-09-23T17:06:53.077Z,2.10
2022-09-23T17:09:22.883Z,2.95
2022-09-23T17:12:29.302Z,2.85
2022-09-23T17:14:56.607Z,2.50
2022-09-23T17:17:24.050Z,2.60
2022-09-23T17:19:51.492Z,2.50
2022-09-23T17:22:19.167Z,2.78
2022-09-23T17:24:46.673Z,3.13
2022-09-23T17:27:16.024Z,3.63
2022-09-23T17:29:44.501Z,3.08
2022-09-23T17:32:11.972Z,3.22
2022-09-23T17:34:40.348Z,2.70
2022-09-23T17:37:07.886Z,2.78
2022-09-23T17:39:37.035Z,3.03
2022-09-23T17:42:06.090Z,2.50
2022-09-23T17:44:33.905Z,3.17
2022-09-23T17:47:02.219Z,3.53
2022-09-23T17:49:34.853Z,4.00
2022-09-23T17:52:06.565Z,4.00
2022-09-23T17:54:36.032Z,3.45
2022-09-23T17:57:03.908Z,3.72
2022-09-23T17:59:31.367Z,3.63
2022-09-23T18:01:59.405Z,3.40
2022-09-23T18:04:26.939Z,3.28
2022-09-23T18:06:56.190Z,3.50
2022-09-23T18:09:25.049Z,3.70
2022-09-23T18:11:52.717Z,3.10
2022-09-23T18:14:22.554Z,3.45
2022-09-23T18:16:52.378Z,3.85
2022-09-23T18:19:22.445Z,3.63
2022-09-23T18:21:56.111Z,3.72
2022-09-23T18:24:33.105Z,3.30
2022-09-23T18:27:01.658Z,3.50
2022-09-23T18:29:33.047Z,3.80
2022-09-23T18:32:01.445Z,3.85
2022-09-23T18:34:29.006Z,3.75
2022-09-23T18:36:57.715Z,3.17
2022-09-23T18:39:28.770Z,3.60
2022-09-23T18:41:56.386Z,3.63
2022-09-23T18:44:24.293Z,3.53
2022-09-23T18:46:51.913Z,3.40
2022-09-23T18:49:37.822Z,3.67
2022-09-23T18:52:06.608Z,3.50
2022-09-23T18:54:33.932Z,3.60
2022-09-23T18:57:01.617Z,3.65
2022-09-23T18:59:29.739Z,4.03
2022-09-23T19:01:57.637Z,3.83
2022-09-23T19:04:26.407Z,3.67
2022-09-23T19:06:56.374Z,3.60
2022-09-23T19:09:24.600Z,3.47
2022-09-23T19:11:55.800Z,3.88
2022-09-23T19:14:25.547Z,3.50
2022-09-23T19:16:53.770Z,3.88
2022-09-23T19:19:25.788Z,4.35
2022-09-23T19:21:56.328Z,4.35
2022-09-23T19:24:23.797Z,4.53
2022-09-23T19:26:51.247Z,4.68
2022-09-23T19:29:19.805Z,4.03
2022-09-23T19:31:48.798Z,4.03
2022-09-23T19:34:23.885Z,4.43
2022-09-23T19:36:52.903Z,4.85
2022-09-23T19:39:24.982Z,4.13
2022-09-23T19:41:55.735Z,4.43
2022-09-23T19:44:25.200Z,4.32
2022-09-23T19:46:56.350Z,3.90
2022-09-23T19:49:25.265Z,4.60
2022-09-23T19:51:55.765Z,4.15
2022-09-23T19:54:26.628Z,4.07
2022-09-23T19:56:54.287Z,4.30
2022-09-23T19:59:22.805Z,4.50
2022-09-23T20:01:50.348Z,3.75
2022-09-23T20:04:17.805Z,4.00
2022-09-23T20:06:49.677Z,4.00
2022-09-23T20:09:17.032Z,3.85
2022-09-23T20:11:45.544Z,3.83
2022-09-23T20:14:13.002Z,4.70
2022-09-23T20:16:40.733Z,4.40
2022-09-23T20:19:13.483Z,4.00
2022-09-23T20:21:43.406Z,3.75
2022-09-23T20:24:12.378Z,4.15
2022-09-23T20:26:59.465Z,4.38
2022-09-23T20:29:26.858Z,3.40
2022-09-23T20:34:30.993Z,4.13
2022-09-23T20:37:00.976Z,4.78
2022-09-23T20:39:28.378Z,3.65
2022-09-23T20:41:57.221Z,4.25
2022-09-23T20:44:28.515Z,3.88
2022-09-23T20:47:00.241Z,3.97
2022-09-23T20:49:27.607Z,4.07
2022-09-23T20:52:00.083Z,3.75
2022-09-23T20:54:31.457Z,4.10
2022-09-23T20:57:01.302Z,4.00
2022-09-23T20:59:28.827Z,4.43
2022-09-23T21:01:58.623Z,3.80
2022-09-23T21:04:27.995Z,4.30
2022-09-23T21:07:01.105Z,4.47
2022-09-23T21:09:35.358Z,4.32
2022-09-23T21:12:02.718Z,4.30
2022-09-23T21:14:32.346Z,4.20
2022-09-23T21:17:00.865Z,4.70
2022-09-23T21:19:28.367Z,4.22
2022-09-23T21:21:55.751Z,4.50
2022-09-23T21:27:12.167Z,4.05
2022-09-23T21:29:40.179Z,4.32
2022-09-23T21:32:07.788Z,4.60
2022-09-23T21:34:35.270Z,4.82
2022-09-23T21:37:03.200Z,4.43
2022-09-23T21:39:32.744Z,4.47
2022-09-23T21:42:00.214Z,4.45
2022-09-23T21:44:27.623Z,5.10
2022-09-23T21:46:55.079Z,4.60
2022-09-23T21:49:22.471Z,4.75
2022-09-23T21:51:51.487Z,4.65
2022-09-23T21:54:19.225Z,4.38
2022-09-23T21:56:46.494Z,4.80
2022-09-23T21:59:14.035Z,4.68
2022-09-23T22:01:44.948Z,4.18
2022-09-23T22:04:19.077Z,3.97
2022-09-23T22:06:50.341Z,4.45
2022-09-23T22:09:20.857Z,4.35
2022-09-23T22:12:07.619Z,4.32
2022-09-23T22:14:35.620Z,4.38
2022-09-23T22:17:06.553Z,4.35
2022-09-23T22:19:40.198Z,4.18
2022-09-23T22:22:16.408Z,4.65
2022-09-23T22:24:45.479Z,4.40
2022-09-23T22:27:14.518Z,4.57
2022-09-23T22:30:00.337Z,4.03
2022-09-23T22:32:55.302Z,4.30
2022-09-23T22:35:22.890Z,4.50
2022-09-23T22:37:50.637Z,4.63
2022-09-23T22:40:18.278Z,4.00
2022-09-23T22:42:48.763Z,4.07
2022-09-23T22:45:16.250Z,4.18
2022-09-23T22:47:45.518Z,4.20
2022-09-23T22:50:15.375Z,4.18
2022-09-23T22:52:44.044Z,4.50
2022-09-23T22:55:12.327Z,4.40
2022-09-23T22:57:40.064Z,4.78
2022-09-23T23:00:09.394Z,5.13
2022-09-23T23:02:36.812Z,4.05
2022-09-23T23:05:05.995Z,4.53
2022-09-23T23:07:34.181Z,4.15
2022-09-23T23:10:03.064Z,4.50
2022-09-23T23:12:30.874Z,4.07
2022-09-23T23:14:58.182Z,4.38
2022-09-23T23:17:25.958Z,4.43
2022-09-23T23:19:53.788Z,4.53
2022-09-23T23:22:23.441Z,4.63
2022-09-23T23:24:52.706Z,3.90
2022-09-23T23:27:20.948Z,4.40
2022-09-23T23:29:48.348Z,4.05
2022-09-23T23:32:17.222Z,4.18
2022-09-23T23:34:44.874Z,3.70
2022-09-23T23:37:12.153Z,4.43
2022-09-23T23:39:39.460Z,3.85
2022-09-23T23:42:06.968Z,4.18
2022-09-23T23:44:34.573Z,3.70
2022-09-23T23:47:04.528Z,4.30
2022-09-23T23:49:31.972Z,4.70
2022-09-23T23:51:59.431Z,4.53
2022-09-23T23:54:27.020Z,4.13
2022-09-23T23:56:54.372Z,4.78
2022-09-23T23:59:22.093Z,4.40
